createdAt,value
2022-12-07T00:00:48.183Z,100254.84
2022-12-07T00:03:53.625Z,100247.47
2022-12-07T00:06:56.215Z,100251.59
2022-12-07T00:09:59.610Z,100251.84
2022-12-07T00:13:02.399Z,100251.63
2022-12-07T00:16:07.261Z,100252.22
2022-12-07T00:19:11.215Z,100244.59
2022-12-07T00:22:14.371Z,100245.06
2022-12-07T00:25:17.045Z,100241.38
2022-12-07T00:28:20.048Z,100247.56
2022-12-07T00:31:24.899Z,100241.06
2022-12-07T00:34:27.917Z,100249.19
2022-12-07T00:37:31.516Z,100249.53
2022-12-07T00:40:34.555Z,100239.84
2022-12-07T00:43:37.353Z,100236.78
2022-12-07T00:46:40.252Z,100233.66
2022-12-07T00:49:42.918Z,100237.59
2022-12-07T00:52:45.857Z,100235.88
2022-12-07T00:55:48.617Z,100238.06
2022-12-07T00:58:59.221Z,100228.66
2022-12-07T01:02:01.892Z,100221.72
2022-12-07T01:05:05.242Z,100221.13
2022-12-07T01:08:09.985Z,100218.06
2022-12-07T01:11:15.820Z,100213.75
2022-12-07T01:14:19.628Z,100218.91
2022-12-07T01:17:22.558Z,100217.03
2022-12-07T01:20:25.282Z,100214.59
2022-12-07T01:23:28.597Z,100221.53
2022-12-07T01:26:31.317Z,100221.34
2022-12-07T01:29:34.299Z,100228.13
2022-12-07T01:32:36.948Z,100224.25
2022-12-07T01:35:39.987Z,100223.91
2022-12-07T01:38:43.396Z,100220.03
2022-12-07T01:41:46.355Z,100218.12
2022-12-07T01:45:19.640Z,100218.94
2022-12-07T01:48:29.979Z,100210.09
2022-12-07T01:51:33.088Z,100207.97
2022-12-07T01:54:36.656Z,100200.59
2022-12-07T01:57:44.509Z,100198.31
2022-12-07T02:00:47.848Z,100206.22
2022-12-07T02:03:50.888Z,100199.31
2022-12-07T02:06:55.040Z,100202.34
2022-12-07T02:09:58.367Z,100201.72
2022-12-07T02:13:18.044Z,100191.06
2022-12-07T02:16:48.923Z,100187.50
2022-12-07T02:20:10.038Z,100195.06
2022-12-07T02:23:50.667Z,100203.09
2022-12-07T02:27:09.715Z,100196.69
2022-12-07T02:30:16.436Z,100193.81
2022-12-07T02:33:25.798Z,100185.22
2022-12-07T02:36:37.445Z,100185.69
2022-12-07T02:39:54.447Z,100187.94
2022-12-07T02:43:09.495Z,100189.22
2022-12-07T02:46:24.082Z,100186.16
2022-12-07T02:49:29.171Z,100189.28
2022-12-07T02:52:34.270Z,100194.47
2022-12-07T02:55:42.073Z,100191.50
2022-12-07T02:58:56.912Z,100190.03
2022-12-07T03:02:15.208Z,100202.59
2022-12-07T03:05:47.607Z,100176.78
2022-12-07T03:09:11.435Z,100190.22
2022-12-07T03:12:23.670Z,100183.22
2022-12-07T03:15:33.179Z,100193.34
2022-12-07T03:18:41.521Z,100188.63
2022-12-07T03:22:05.135Z,100191.06
2022-12-07T03:25:11.654Z,100190.88
2022-12-07T03:28:19.741Z,100188.03
2022-12-07T03:31:32.843Z,100192.28
2022-12-07T03:34:44.714Z,100182.81
2022-12-07T03:37:55.332Z,100193.44
2022-12-07T03:41:30.970Z,100183.78
2022-12-07T03:44:36.526Z,100176.31
2022-12-07T03:48:03.275Z,100176.72
2022-12-07T03:51:29.672Z,100178.34
2022-12-07T03:55:07.806Z,100177.03
2022-12-07T03:58:15.584Z,100179.28
2022-12-07T04:01:20.026Z,100183.44
2022-12-07T04:04:25.808Z,100172.47
2022-12-07T04:07:28.496Z,100180.53
2022-12-07T04:10:32.931Z,100181.94
2022-12-07T04:13:55.593Z,100179.56
2022-12-07T04:16:59.714Z,100178.06
2022-12-07T04:20:03.237Z,100174.31
2022-12-07T04:23:06.604Z,100182.87
2022-12-07T04:26:09.192Z,100177.91
2022-12-07T04:29:12.869Z,100178.47
2022-12-07T04:32:15.554Z,100184.41
2022-12-07T04:35:18.518Z,100185.72
2022-12-07T04:38:22.029Z,100184.00
2022-12-07T04:41:28.517Z,100189.16
2022-12-07T04:44:31.938Z,100184.62
2022-12-07T04:47:34.855Z,100182.00
2022-12-07T04:50:44.585Z,100191.03
2022-12-07T04:53:49.238Z,100182.91
2022-12-07T04:56:51.914Z,100182.56
2022-12-07T04:59:55.687Z,100185.87
2022-12-07T05:02:58.454Z,100187.88
2022-12-07T05:06:01.545Z,100191.41
2022-12-07T05:09:04.596Z,100178.31
2022-12-07T05:12:07.579Z,100176.69
2022-12-07T05:15:10.778Z,100188.00
2022-12-07T05:18:13.822Z,100190.22
2022-12-07T05:21:18.118Z,100195.53
2022-12-07T05:24:21.245Z,100197.31
2022-12-07T05:27:24.110Z,100195.31
2022-12-07T05:30:27.525Z,100190.69
2022-12-07T05:33:32.125Z,100199.13
2022-12-07T05:36:35.188Z,100206.13
2022-12-07T05:39:39.008Z,100194.25
2022-12-07T05:42:42.865Z,100195.88
2022-12-07T05:45:45.576Z,100198.41
2022-12-07T05:48:48.532Z,100201.78
2022-12-07T05:51:51.519Z,100200.66
2022-12-07T05:54:54.551Z,100194.84
2022-12-07T05:58:17.478Z,100201.59
2022-12-07T06:01:20.514Z,100203.63
2022-12-07T06:04:24.709Z,100208.97
2022-12-07T06:07:27.501Z,100208.97
2022-12-07T06:10:30.501Z,100197.19
2022-12-07T06:13:33.181Z,100206.34
2022-12-07T06:16:36.143Z,100212.97
2022-12-07T06:19:39.615Z,100204.13
2022-12-07T06:22:42.629Z,100209.94
2022-12-07T06:25:47.330Z,100209.50
2022-12-07T06:28:50.296Z,100208.22
2022-12-07T06:31:53.213Z,100202.00
2022-12-07T06:34:56.218Z,100208.78
2022-12-07T06:38:00.398Z,100214.66
2022-12-07T06:41:03.311Z,100220.00
2022-12-07T06:44:07.412Z,100218.62
2022-12-07T06:47:39.572Z,100223.06
2022-12-07T06:50:33.353Z,100212.56
2022-12-07T06:53:37.278Z,100214.78
2022-12-07T06:56:40.110Z,100212.69
2022-12-07T06:59:43.136Z,100230.56
2022-12-07T07:02:45.926Z,100221.41
2022-12-07T07:05:49.360Z,100231.13
2022-12-07T07:08:52.443Z,100227.22
2022-12-07T07:11:55.491Z,100232.97
2022-12-07T07:14:58.183Z,100222.19
2022-12-07T07:18:07.409Z,100228.47
2022-12-07T07:21:11.160Z,100224.13
2022-12-07T07:24:14.219Z,100217.47
2022-12-07T07:27:16.964Z,100218.09
2022-12-07T07:30:20.217Z,100210.34
2022-12-07T07:33:22.914Z,100220.75
2022-12-07T07:36:25.947Z,100221.56
2022-12-07T07:39:28.642Z,100224.03
2022-12-07T07:42:31.551Z,100230.78
2022-12-07T07:45:34.285Z,100230.56
2022-12-07T07:48:37.291Z,100239.59
2022-12-07T07:51:39.987Z,100236.47
2022-12-07T07:54:42.967Z,100239.19
2022-12-07T07:57:51.209Z,100239.19
2022-12-07T08:00:56.227Z,100243.87
2022-12-07T08:03:59.189Z,100237.56
2022-12-07T08:07:01.908Z,100235.25
2022-12-07T08:10:06.245Z,100240.53
2022-12-07T08:13:11.927Z,100247.63
2022-12-07T08:16:16.423Z,100244.63
2022-12-07T08:19:19.237Z,100252.06
2022-12-07T08:22:22.207Z,100249.78
2022-12-07T08:25:24.819Z,100243.72
2022-12-07T08:28:27.833Z,100245.53
2022-12-07T08:31:30.655Z,100248.28
2022-12-07T08:34:33.883Z,100252.00
2022-12-07T08:37:36.876Z,100247.56
2022-12-07T08:40:39.826Z,100253.53
2022-12-07T08:43:42.575Z,100257.37
2022-12-07T08:47:00.165Z,100262.31
2022-12-07T08:50:05.778Z,100256.81
2022-12-07T08:53:08.992Z,100263.97
2022-12-07T08:56:11.930Z,100261.78
2022-12-07T08:59:18.518Z,100243.75
2022-12-07T09:02:21.249Z,100244.53
2022-12-07T09:05:24.527Z,100242.00
2022-12-07T09:08:34.869Z,100241.91
2022-12-07T09:11:37.991Z,100255.34
2022-12-07T09:14:41.773Z,100253.63
2022-12-07T09:17:44.927Z,100244.00
2022-12-07T09:20:47.621Z,100239.06
2022-12-07T09:23:50.611Z,100245.72
2022-12-07T09:26:53.515Z,100245.72
2022-12-07T09:29:56.626Z,100249.16
2022-12-07T09:32:59.451Z,100244.66
2022-12-07T09:36:03.767Z,100237.69
2022-12-07T09:39:06.754Z,100232.84
2022-12-07T09:42:17.317Z,100220.84
2022-12-07T09:45:34.065Z,100217.06
2022-12-07T09:48:40.240Z,100215.22
2022-12-07T09:51:42.970Z,100222.25
2022-12-07T09:54:49.809Z,100223.63
2022-12-07T09:57:54.090Z,100213.69
2022-12-07T10:01:22.700Z,100212.00
2022-12-07T10:04:27.939Z,100205.56
2022-12-07T10:07:31.415Z,100220.31
2022-12-07T10:10:39.844Z,100213.16
2022-12-07T10:13:50.081Z,100206.75
2022-12-07T10:16:54.079Z,100214.22
2022-12-07T10:20:16.964Z,100207.63
2022-12-07T10:23:20.047Z,100200.59
2022-12-07T10:26:41.607Z,100197.22
2022-12-07T10:29:51.206Z,100197.31
2022-12-07T10:32:54.259Z,100205.03
2022-12-07T10:35:57.835Z,100195.31
2022-12-07T10:39:04.903Z,100198.62
2022-12-07T10:42:17.303Z,100199.87
2022-12-07T10:45:21.258Z,100203.66
2022-12-07T10:48:38.331Z,100200.44
2022-12-07T10:51:41.036Z,100201.47
2022-12-07T10:54:53.836Z,100202.41
2022-12-07T10:58:02.634Z,100190.47
2022-12-07T11:01:23.840Z,100202.47
2022-12-07T11:04:29.355Z,100206.03
2022-12-07T11:07:45.289Z,100197.28
2022-12-07T11:11:03.375Z,100189.81
2022-12-07T11:14:27.971Z,100181.16
2022-12-07T11:17:47.116Z,100178.22
2022-12-07T11:21:08.351Z,100173.56
2022-12-07T11:24:28.132Z,100168.28
2022-12-07T11:27:55.462Z,100172.25
2022-12-07T11:31:28.771Z,100164.28
2022-12-07T11:34:40.534Z,100159.88
2022-12-07T11:37:45.400Z,100154.06
2022-12-07T11:40:50.927Z,100153.50
2022-12-07T11:43:59.463Z,100144.12
2022-12-07T11:47:11.164Z,100146.06
2022-12-07T11:50:20.424Z,100145.03
2022-12-07T11:53:34.200Z,100135.87
2022-12-07T11:56:39.896Z,100134.53
2022-12-07T11:59:53.168Z,100126.03
2022-12-07T12:03:11.273Z,100132.19
2022-12-07T12:06:15.801Z,100130.50
2022-12-07T12:09:38.958Z,100132.19
2022-12-07T12:17:11.117Z,100123.38
2022-12-07T12:20:37.339Z,100127.66
2022-12-07T12:23:50.464Z,100125.47
2022-12-07T12:27:11.388Z,100122.06
2022-12-07T12:30:26.269Z,100118.44
2022-12-07T12:33:32.341Z,100119.38
2022-12-07T12:36:41.500Z,100121.56
2022-12-07T12:40:16.269Z,100131.38
2022-12-07T12:43:41.405Z,100129.06
2022-12-07T12:46:58.639Z,100121.25
2022-12-07T12:50:21.569Z,100120.25
2022-12-07T12:53:26.593Z,100117.75
2022-12-07T12:57:01.429Z,100123.16
2022-12-07T13:00:17.231Z,100126.75
2022-12-07T13:03:38.096Z,100125.34
2022-12-07T13:06:43.378Z,100122.37
2022-12-07T13:09:46.653Z,100124.09
2022-12-07T13:13:21.488Z,100130.75
2022-12-07T13:16:25.164Z,100139.03
2022-12-07T13:19:43.573Z,100131.81
2022-12-07T13:22:50.019Z,100136.38
2022-12-07T13:26:03.225Z,100131.47
2022-12-07T13:29:11.730Z,100130.41
2022-12-07T13:32:29.061Z,100133.16
2022-12-07T13:35:40.367Z,100134.78
2022-12-07T13:38:51.281Z,100125.37
2022-12-07T13:41:58.782Z,100134.88
2022-12-07T13:45:23.188Z,100133.72
2022-12-07T13:48:45.450Z,100138.56
2022-12-07T13:51:52.600Z,100140.41
2022-12-07T13:55:00.035Z,100142.34
2022-12-07T13:58:03.365Z,100145.78
2022-12-07T14:01:07.697Z,100145.69
2022-12-07T14:04:37.398Z,100155.66
2022-12-07T14:07:58.586Z,100150.84
2022-12-07T14:11:02.152Z,100150.00
2022-12-07T14:14:06.071Z,100164.19
2022-12-07T14:17:26.716Z,100162.87
2022-12-07T14:20:30.764Z,100161.91
2022-12-07T14:23:40.023Z,100163.50
2022-12-07T14:26:43.248Z,100168.56
2022-12-07T14:29:46.562Z,100162.84
2022-12-07T14:32:56.214Z,100164.84
2022-12-07T14:36:00.326Z,100166.37
2022-12-07T14:39:03.025Z,100162.31
2022-12-07T14:42:06.086Z,100164.72
2022-12-07T14:45:15.868Z,100158.53
2022-12-07T14:55:06.799Z,100166.34
2022-12-07T14:58:15.774Z,100171.56
2022-12-07T15:01:19.079Z,100170.84
2022-12-07T15:04:21.841Z,100171.19
2022-12-07T15:07:25.049Z,100177.00
2022-12-07T15:10:32.916Z,100177.03
2022-12-07T15:13:54.669Z,100174.62
2022-12-07T15:17:21.924Z,100181.72
2022-12-07T15:20:20.395Z,100190.25
2022-12-07T15:23:25.606Z,100189.63
2022-12-07T15:26:28.481Z,100198.81
2022-12-07T15:29:31.379Z,100203.47
2022-12-07T15:32:34.426Z,100200.56
2022-12-07T15:35:49.163Z,100193.16
2022-12-07T15:39:17.939Z,100189.28
2022-12-07T15:42:15.238Z,100200.38
2022-12-07T15:45:18.461Z,100202.13
2022-12-07T15:48:29.438Z,100200.41
2022-12-07T15:51:35.004Z,100207.50
2022-12-07T15:54:37.695Z,100204.44
2022-12-07T15:57:40.727Z,100204.25
2022-12-07T16:00:43.526Z,100206.69
2022-12-07T16:03:47.690Z,100205.22
2022-12-07T16:06:52.196Z,100206.37
2022-12-07T16:09:55.282Z,100213.44
2022-12-07T16:12:57.981Z,100210.22
2022-12-07T16:16:09.013Z,100206.37
2022-12-07T16:19:12.203Z,100207.63
2022-12-07T16:22:15.208Z,100215.19
2022-12-07T16:25:17.998Z,100206.34
2022-12-07T16:28:21.105Z,100212.09
2022-12-07T16:31:28.564Z,100208.22
2022-12-07T16:34:31.658Z,100214.34
2022-12-07T16:37:34.426Z,100210.81
2022-12-07T16:40:37.567Z,100214.34
2022-12-07T16:43:40.378Z,100203.19
2022-12-07T16:46:44.117Z,100203.53
2022-12-07T16:49:46.880Z,100204.94
2022-12-07T16:52:50.237Z,100206.78
2022-12-07T16:55:53.176Z,100210.13
2022-12-07T16:59:00.014Z,100205.63
2022-12-07T17:02:03.318Z,100202.94
2022-12-07T17:05:06.775Z,100209.97
2022-12-07T17:08:10.525Z,100210.97
2022-12-07T17:11:26.407Z,100205.97
2022-12-07T17:14:47.549Z,100213.34
2022-12-07T17:17:59.209Z,100216.69
2022-12-07T17:21:07.701Z,100214.50
2022-12-07T17:24:13.593Z,100221.44
2022-12-07T17:27:17.506Z,100223.16
2022-12-07T17:30:21.144Z,100226.38
2022-12-07T17:33:24.109Z,100223.69
2022-12-07T17:36:30.309Z,100222.66
2022-12-07T17:39:35.488Z,100221.53
2022-12-07T17:42:40.501Z,100222.97
2022-12-07T17:45:44.634Z,100231.09
2022-12-07T17:48:47.713Z,100229.34
2022-12-07T17:52:09.374Z,100234.00
2022-12-07T17:55:12.710Z,100231.72
2022-12-07T17:58:16.610Z,100239.06
2022-12-07T18:01:24.049Z,100236.69
2022-12-07T18:04:27.954Z,100240.66
2022-12-07T18:07:31.106Z,100241.03
2022-12-07T18:10:34.262Z,100246.47
2022-12-07T18:13:40.737Z,100253.91
2022-12-07T18:16:45.323Z,100247.84
2022-12-07T18:19:48.706Z,100242.88
2022-12-07T18:22:52.619Z,100241.31
2022-12-07T18:25:55.657Z,100239.12
2022-12-07T18:29:00.560Z,100249.03
2022-12-07T18:32:05.575Z,100233.37
2022-12-07T18:35:10.423Z,100235.72
2022-12-07T18:38:15.419Z,100234.03
2022-12-07T18:41:40.981Z,100236.13
2022-12-07T18:44:44.869Z,100240.66
2022-12-07T18:47:50.474Z,100236.91
2022-12-07T18:51:02.250Z,100236.41
2022-12-07T18:54:08.833Z,100242.44
2022-12-07T18:57:12.015Z,100246.22
2022-12-07T19:00:16.079Z,100257.59
2022-12-07T19:03:21.341Z,100256.19
2022-12-07T19:06:25.951Z,100260.34
2022-12-07T19:09:31.754Z,100263.56
2022-12-07T19:12:37.834Z,100265.19
2022-12-07T19:15:41.956Z,100263.84
2022-12-07T19:18:51.259Z,100259.97
2022-12-07T19:21:55.346Z,100260.72
2022-12-07T19:24:59.147Z,100263.09
2022-12-07T19:28:02.615Z,100257.41
2022-12-07T19:31:15.651Z,100265.22
2022-12-07T19:34:19.571Z,100258.28
2022-12-07T19:37:23.992Z,100261.19
2022-12-07T19:40:27.977Z,100272.50
2022-12-07T19:43:35.944Z,100270.16
2022-12-07T19:46:43.368Z,100271.97
2022-12-07T19:49:47.966Z,100270.50
2022-12-07T19:52:53.250Z,100272.81
2022-12-07T19:55:59.351Z,100269.88
2022-12-07T19:59:07.968Z,100267.25
2022-12-07T20:02:17.346Z,100266.47
2022-12-07T20:05:26.102Z,100269.00
2022-12-07T20:08:30.203Z,100274.44
2022-12-07T20:11:53.147Z,100269.97
2022-12-07T20:14:58.419Z,100275.53
2022-12-07T20:18:02.508Z,100265.34
2022-12-07T20:21:06.496Z,100269.88
2022-12-07T20:24:20.993Z,100281.22
2022-12-07T20:27:25.325Z,100273.03
2022-12-07T20:30:28.760Z,100278.78
2022-12-07T20:33:32.877Z,100273.72
2022-12-07T20:36:36.799Z,100271.09
2022-12-07T20:39:41.449Z,100289.28
2022-12-07T20:42:49.960Z,100295.31
2022-12-07T20:45:54.235Z,100289.56
2022-12-07T20:49:03.170Z,100287.06
2022-12-07T20:52:07.704Z,100283.41
2022-12-07T20:55:11.643Z,100281.31
2022-12-07T20:58:14.942Z,100285.03
2022-12-07T21:01:19.408Z,100298.84
2022-12-07T21:04:22.827Z,100283.38
2022-12-07T21:07:26.089Z,100284.81
2022-12-07T21:10:28.962Z,100293.28
2022-12-07T21:13:32.334Z,100285.91
2022-12-07T21:16:36.187Z,100280.19
2022-12-07T21:19:39.499Z,100280.03
2022-12-07T21:22:42.235Z,100281.28
2022-12-07T21:25:45.539Z,100276.84
2022-12-07T21:28:49.642Z,100276.59
2022-12-07T21:31:52.701Z,100271.63
2022-12-07T21:34:55.561Z,100275.06
2022-12-07T21:37:58.596Z,100276.84
2022-12-07T21:41:10.296Z,100279.56
2022-12-07T21:44:13.208Z,100270.78
2022-12-07T21:47:15.852Z,100274.44
2022-12-07T21:50:21.042Z,100288.16
2022-12-07T21:53:25.961Z,100286.94
2022-12-07T21:56:37.074Z,100282.81
2022-12-07T21:59:39.679Z,100281.97
2022-12-07T22:02:44.114Z,100284.63
2022-12-07T22:05:47.160Z,100283.31
2022-12-07T22:08:52.465Z,100284.03
2022-12-07T22:11:58.793Z,100276.16
2022-12-07T22:15:07.334Z,100275.84
2022-12-07T22:18:10.458Z,100284.13
2022-12-07T22:21:13.211Z,100278.97
2022-12-07T22:24:16.239Z,100289.16
2022-12-07T22:27:19.601Z,100287.03
2022-12-07T22:30:22.705Z,100277.09
2022-12-07T22:33:25.388Z,100279.97
2022-12-07T22:36:29.635Z,100285.34
2022-12-07T22:39:34.804Z,100285.00
2022-12-07T22:42:37.987Z,100293.09
2022-12-07T22:45:40.838Z,100280.59
2022-12-07T22:48:43.988Z,100286.84
2022-12-07T22:51:46.829Z,100283.69
2022-12-07T22:54:49.895Z,100278.88
2022-12-07T22:57:53.129Z,100281.94
2022-12-07T23:00:56.047Z,100271.97
2022-12-07T23:03:58.798Z,100284.19
2022-12-07T23:07:01.812Z,100268.63
2022-12-07T23:10:05.811Z,100269.22
2022-12-07T23:13:30.071Z,100266.12
2022-12-07T23:16:32.967Z,100268.44
2022-12-07T23:19:36.087Z,100258.56
2022-12-07T23:22:38.882Z,100260.34
2022-12-07T23:25:43.313Z,100257.91
2022-12-07T23:28:45.963Z,100261.66
2022-12-07T23:31:49.995Z,100254.69
2022-12-07T23:34:52.843Z,100258.91
2022-12-07T23:37:55.802Z,100259.09
2022-12-07T23:40:58.472Z,100254.03
2022-12-07T23:44:02.216Z,100253.41
2022-12-07T23:47:05.091Z,100254.34
2022-12-07T23:50:08.909Z,100253.44
2022-12-07T23:53:11.586Z,100249.53
2022-12-07T23:56:17.827Z,100251.69
2022-12-07T23:59:20.538Z,100253.50
